sensor_id;sensor_type;location;lat;lon;timestamp;pressure;altitude;pressure_sealevel;temperature;humidity
43281;BME280;62175;49.416;8.690;2022-08-01T00:01:08;100463.90;;;25.91;43.61
43281;BME280;62175;49.416;8.690;2022-08-01T00:03:35;100462.60;;;25.86;43.51
43281;BME280;62175;49.416;8.690;2022-08-01T00:06:02;100458.82;;;25.92;44.63
43281;BME280;62175;49.416;8.690;2022-08-01T00:08:30;100461.96;;;25.67;44.10
43281;BME280;62175;49.416;8.690;2022-08-01T00:10:57;100460.22;;;25.89;44.65
43281;BME280;62175;49.416;8.690;2022-08-01T00:13:24;100458.57;;;25.79;43.90
43281;BME280;62175;49.416;8.690;2022-08-01T00:15:51;100457.11;;;25.85;44.06
43281;BME280;62175;49.416;8.690;2022-08-01T00:18:18;100456.56;;;26.12;44.40
43281;BME280;62175;49.416;8.690;2022-08-01T00:20:45;100457.57;;;25.85;44.90
43281;BME280;62175;49.416;8.690;2022-08-01T00:23:12;100461.01;;;25.77;44.42
43281;BME280;62175;49.416;8.690;2022-08-01T00:25:39;100466.05;;;25.77;44.80
43281;BME280;62175;49.416;8.690;2022-08-01T00:28:06;100465.52;;;25.80;43.87
43281;BME280;62175;49.416;8.690;2022-08-01T00:30:33;100463.40;;;25.78;43.36
43281;BME280;62175;49.416;8.690;2022-08-01T00:33:01;100460.46;;;25.81;43.52
43281;BME280;62175;49.416;8.690;2022-08-01T00:35:28;100461.95;;;26.07;45.31
43281;BME280;62175;49.416;8.690;2022-08-01T00:37:54;100464.10;;;25.76;44.72
43281;BME280;62175;49.416;8.690;2022-08-01T00:40:21;100462.30;;;25.79;44.31
43281;BME280;62175;49.416;8.690;2022-08-01T00:42:49;100463.08;;;25.75;45.42
43281;BME280;62175;49.416;8.690;2022-08-01T00:45:16;100464.40;;;25.68;43.63
43281;BME280;62175;49.416;8.690;2022-08-01T00:47:43;100466.79;;;25.70;43.75
43281;BME280;62175;49.416;8.690;2022-08-01T00:50:10;100465.42;;;25.80;45.07
43281;BME280;62175;49.416;8.690;2022-08-01T00:52:39;100466.05;;;26.05;44.14
43281;BME280;62175;49.416;8.690;2022-08-01T00:55:08;100468.60;;;25.78;44.45
43281;BME280;62175;49.416;8.690;2022-08-01T00:57:35;100467.28;;;25.73;44.93
43281;BME280;62175;49.416;8.690;2022-08-01T01:00:04;100469.26;;;25.74;45.12
43281;BME280;62175;49.416;8.690;2022-08-01T01:02:33;100470.43;;;26.02;44.81
43281;BME280;62175;49.416;8.690;2022-08-01T01:05:00;100473.42;;;25.78;45.90
43281;BME280;62175;49.416;8.690;2022-08-01T01:07:32;100475.14;;;25.75;45.65
43281;BME280;62175;49.416;8.690;2022-08-01T01:10:05;100476.18;;;25.76;45.33
43281;BME280;62175;49.416;8.690;2022-08-01T01:12:40;100480.00;;;25.73;45.41
43281;BME280;62175;49.416;8.690;2022-08-01T01:15:12;100479.05;;;25.73;45.39
43281;BME280;62175;49.416;8.690;2022-08-01T01:17:46;100481.40;;;25.76;45.84
43281;BME280;62175;49.416;8.690;2022-08-01T01:20:16;100482.65;;;25.72;45.15
43281;BME280;62175;49.416;8.690;2022-08-01T01:22:55;100483.99;;;25.98;45.30
43281;BME280;62175;49.416;8.690;2022-08-01T01:25:39;100482.64;;;25.72;46.49
43281;BME280;62175;49.416;8.690;2022-08-01T01:28:12;100482.74;;;25.69;45.67
43281;BME280;62175;49.416;8.690;2022-08-01T01:30:45;100484.58;;;25.71;47.34
43281;BME280;62175;49.416;8.690;2022-08-01T01:33:14;100485.51;;;25.74;45.82
43281;BME280;62175;49.416;8.690;2022-08-01T01:35:47;100487.62;;;25.68;46.90
43281;BME280;62175;49.416;8.690;2022-08-01T01:38:20;100488.45;;;25.65;46.88
43281;BME280;62175;49.416;8.690;2022-08-01T01:40:48;100489.48;;;25.58;45.81
43281;BME280;62175;49.416;8.690;2022-08-01T01:43:18;100489.41;;;25.79;46.06
43281;BME280;62175;49.416;8.690;2022-08-01T01:45:47;100491.35;;;25.61;48.05
43281;BME280;62175;49.416;8.690;2022-08-01T01:48:18;100491.18;;;25.55;46.69
43281;BME280;62175;49.416;8.690;2022-08-01T01:50:47;100494.03;;;25.48;46.93
43281;BME280;62175;49.416;8.690;2022-08-01T01:53:18;100496.92;;;25.64;46.39
43281;BME280;62175;49.416;8.690;2022-08-01T01:55:48;100498.50;;;25.49;46.98
43281;BME280;62175;49.416;8.690;2022-08-01T01:58:18;100498.00;;;25.51;47.34
43281;BME280;62175;49.416;8.690;2022-08-01T02:00:48;100499.41;;;25.84;47.06
43281;BME280;62175;49.416;8.690;2022-08-01T02:03:18;100497.58;;;25.47;46.41
43281;BME280;62175;49.416;8.690;2022-08-01T02:05:47;100501.02;;;25.71;45.96
43281;BME280;62175;49.416;8.690;2022-08-01T02:08:17;100500.50;;;25.50;46.26
43281;BME280;62175;49.416;8.690;2022-08-01T02:10:45;100504.23;;;25.65;48.65
43281;BME280;62175;49.416;8.690;2022-08-01T02:13:13;100507.06;;;25.37;46.46
43281;BME280;62175;49.416;8.690;2022-08-01T02:15:40;100504.82;;;25.66;46.83
43281;BME280;62175;49.416;8.690;2022-08-01T02:18:09;100503.84;;;25.24;45.98
43281;BME280;62175;49.416;8.690;2022-08-01T02:20:37;100503.88;;;25.70;47.13
43281;BME280;62175;49.416;8.690;2022-08-01T02:23:08;100506.79;;;25.36;46.25
43281;BME280;62175;49.416;8.690;2022-08-01T02:25:42;100508.51;;;25.41;46.75
43281;BME280;62175;49.416;8.690;2022-08-01T02:28:13;100504.67;;;25.55;46.83
43281;BME280;62175;49.416;8.690;2022-08-01T02:30:47;100508.62;;;25.43;46.89
43281;BME280;62175;49.416;8.690;2022-08-01T02:33:18;100510.13;;;25.42;47.07
43281;BME280;62175;49.416;8.690;2022-08-01T02:35:50;100511.85;;;25.33;47.41
43281;BME280;62175;49.416;8.690;2022-08-01T02:38:18;100515.78;;;25.53;47.00
43281;BME280;62175;49.416;8.690;2022-08-01T02:40:48;100514.11;;;25.58;47.19
43281;BME280;62175;49.416;8.690;2022-08-01T02:43:21;100515.99;;;25.61;47.52
43281;BME280;62175;49.416;8.690;2022-08-01T02:45:51;100513.91;;;25.69;47.38
43281;BME280;62175;49.416;8.690;2022-08-01T02:48:21;100514.93;;;25.74;47.56
43281;BME280;62175;49.416;8.690;2022-08-01T02:50:53;100513.76;;;25.41;47.29
43281;BME280;62175;49.416;8.690;2022-08-01T02:53:24;100513.31;;;25.62;47.83
43281;BME280;62175;49.416;8.690;2022-08-01T02:55:53;100507.67;;;25.45;47.53
43281;BME280;62175;49.416;8.690;2022-08-01T02:58:21;100508.21;;;25.37;47.30
43281;BME280;62175;49.416;8.690;2022-08-01T03:00:50;100510.32;;;25.67;47.57
43281;BME280;62175;49.416;8.690;2022-08-01T03:03:18;100507.78;;;25.04;47.51
43281;BME280;62175;49.416;8.690;2022-08-01T03:05:46;100507.70;;;25.50;47.66
43281;BME280;62175;49.416;8.690;2022-08-01T03:08:15;100507.14;;;25.43;48.08
43281;BME280;62175;49.416;8.690;2022-08-01T03:10:45;100507.71;;;25.20;47.78
43281;BME280;62175;49.416;8.690;2022-08-01T03:13:14;100507.41;;;25.53;47.46
43281;BME280;62175;49.416;8.690;2022-08-01T03:15:43;100508.39;;;25.30;48.06
43281;BME280;62175;49.416;8.690;2022-08-01T03:18:12;100508.04;;;25.55;47.67
43281;BME280;62175;49.416;8.690;2022-08-01T03:20:42;100503.23;;;25.57;47.79
43281;BME280;62175;49.416;8.690;2022-08-01T03:23:11;100501.23;;;25.55;49.27
43281;BME280;62175;49.416;8.690;2022-08-01T03:25:40;100505.17;;;25.55;47.53
43281;BME280;62175;49.416;8.690;2022-08-01T03:28:10;100504.82;;;25.07;48.02
43281;BME280;62175;49.416;8.690;2022-08-01T03:30:39;100506.93;;;25.59;49.10
43281;BME280;62175;49.416;8.690;2022-08-01T03:33:07;100508.76;;;25.38;48.73
43281;BME280;62175;49.416;8.690;2022-08-01T03:35:39;100508.29;;;25.22;48.09
43281;BME280;62175;49.416;8.690;2022-08-01T03:38:10;100506.12;;;25.42;48.77
43281;BME280;62175;49.416;8.690;2022-08-01T03:40:43;100507.42;;;25.56;48.43
43281;BME280;62175;49.416;8.690;2022-08-01T03:43:13;100509.97;;;25.40;48.36
43281;BME280;62175;49.416;8.690;2022-08-01T03:45:48;100508.93;;;25.47;48.09
43281;BME280;62175;49.416;8.690;2022-08-01T03:48:17;100507.07;;;25.69;47.82
43281;BME280;62175;49.416;8.690;2022-08-01T03:50:48;100509.97;;;25.16;48.28
43281;BME280;62175;49.416;8.690;2022-08-01T03:53:22;100508.98;;;25.23;48.35
43281;BME280;62175;49.416;8.690;2022-08-01T03:55:50;100505.69;;;25.18;48.21
43281;BME280;62175;49.416;8.690;2022-08-01T03:58:18;100508.14;;;25.18;48.06
43281;BME280;62175;49.416;8.690;2022-08-01T04:00:46;100507.59;;;25.26;49.00
43281;BME280;62175;49.416;8.690;2022-08-01T04:03:13;100507.18;;;25.33;49.26
43281;BME280;62175;49.416;8.690;2022-08-01T04:05:41;100509.02;;;24.96;49.80
43281;BME280;62175;49.416;8.690;2022-08-01T04:08:09;100506.30;;;25.19;49.35
43281;BME280;62175;49.416;8.690;2022-08-01T04:10:37;100507.93;;;25.27;49.76
43281;BME280;62175;49.416;8.690;2022-08-01T04:13:04;100508.37;;;24.89;49.48
43281;BME280;62175;49.416;8.690;2022-08-01T04:15:31;100509.00;;;25.25;49.49
43281;BME280;62175;49.416;8.690;2022-08-01T04:17:59;100516.79;;;25.15;50.17
43281;BME280;62175;49.416;8.690;2022-08-01T04:20:26;100516.63;;;25.16;49.77
43281;BME280;62175;49.416;8.690;2022-08-01T04:22:53;100516.55;;;25.20;49.57
43281;BME280;62175;49.416;8.690;2022-08-01T04:25:25;100516.00;;;24.93;49.63
43281;BME280;62175;49.416;8.690;2022-08-01T04:27:53;100521.35;;;25.33;49.88
43281;BME280;62175;49.416;8.690;2022-08-01T04:30:24;100522.36;;;25.35;50.01
43281;BME280;62175;49.416;8.690;2022-08-01T04:32:55;100526.90;;;25.36;49.70
43281;BME280;62175;49.416;8.690;2022-08-01T04:35:24;100531.44;;;25.51;49.84
43281;BME280;62175;49.416;8.690;2022-08-01T04:37:53;100532.96;;;25.32;49.65
43281;BME280;62175;49.416;8.690;2022-08-01T04:40:21;100533.63;;;25.25;49.74
43281;BME280;62175;49.416;8.690;2022-08-01T04:42:49;100531.41;;;25.43;49.61
43281;BME280;62175;49.416;8.690;2022-08-01T04:45:17;100536.81;;;25.31;50.04
43281;BME280;62175;49.416;8.690;2022-08-01T04:47:45;100537.05;;;25.48;49.95
43281;BME280;62175;49.416;8.690;2022-08-01T04:50:13;100538.36;;;25.51;49.86
43281;BME280;62175;49.416;8.690;2022-08-01T04:52:40;100536.16;;;25.47;49.70
43281;BME280;62175;49.416;8.690;2022-08-01T04:55:08;100537.20;;;25.36;49.77
43281;BME280;62175;49.416;8.690;2022-08-01T04:57:37;100537.47;;;25.16;49.74
43281;BME280;62175;49.416;8.690;2022-08-01T05:00:06;100539.15;;;25.15;49.32
43281;BME280;62175;49.416;8.690;2022-08-01T05:02:34;100541.88;;;25.63;50.01
43281;BME280;62175;49.416;8.690;2022-08-01T05:05:02;100544.48;;;25.22;49.54
43281;BME280;62175;49.416;8.690;2022-08-01T05:07:31;100546.61;;;25.15;50.51
43281;BME280;62175;49.416;8.690;2022-08-01T05:09:58;100543.35;;;25.42;48.80
43281;BME280;62175;49.416;8.690;2022-08-01T05:12:25;100541.97;;;25.43;48.95
43281;BME280;62175;49.416;8.690;2022-08-01T05:14:52;100538.56;;;25.53;49.70
43281;BME280;62175;49.416;8.690;2022-08-01T05:17:19;100541.72;;;25.53;48.86
43281;BME280;62175;49.416;8.690;2022-08-01T05:19:45;100543.88;;;25.27;49.85
43281;BME280;62175;49.416;8.690;2022-08-01T05:22:12;100543.09;;;25.13;49.21
43281;BME280;62175;49.416;8.690;2022-08-01T05:24:40;100548.60;;;25.55;49.59
43281;BME280;62175;49.416;8.690;2022-08-01T05:27:07;100547.94;;;25.55;48.40
43281;BME280;62175;49.416;8.690;2022-08-01T05:29:34;100547.82;;;25.26;49.35
43281;BME280;62175;49.416;8.690;2022-08-01T05:32:02;100548.71;;;25.55;47.73
43281;BME280;62175;49.416;8.690;2022-08-01T05:34:29;100547.12;;;25.26;48.95
43281;BME280;62175;49.416;8.690;2022-08-01T05:36:56;100549.19;;;25.27;48.57
43281;BME280;62175;49.416;8.690;2022-08-01T05:39:24;100550.59;;;25.17;48.29
43281;BME280;62175;49.416;8.690;2022-08-01T05:41:51;100553.34;;;25.04;48.48
43281;BME280;62175;49.416;8.690;2022-08-01T05:44:18;100552.80;;;25.29;48.54
43281;BME280;62175;49.416;8.690;2022-08-01T05:46:44;100554.25;;;25.32;47.52
43281;BME280;62175;49.416;8.690;2022-08-01T05:49:12;100553.58;;;25.03;48.96
43281;BME280;62175;49.416;8.690;2022-08-01T05:51:39;100553.10;;;25.63;48.80
43281;BME280;62175;49.416;8.690;2022-08-01T05:54:06;100551.57;;;25.19;48.98
43281;BME280;62175;49.416;8.690;2022-08-01T05:56:33;100554.62;;;25.12;49.34
43281;BME280;62175;49.416;8.690;2022-08-01T05:59:00;100556.98;;;25.38;48.97
43281;BME280;62175;49.416;8.690;2022-08-01T06:01:26;100559.02;;;25.67;47.74
43281;BME280;62175;49.416;8.690;2022-08-01T06:03:53;100563.23;;;25.52;48.91
43281;BME280;62175;49.416;8.690;2022-08-01T06:06:21;100565.12;;;25.35;48.48
43281;BME280;62175;49.416;8.690;2022-08-01T06:08:49;100569.12;;;25.04;48.24
43281;BME280;62175;49.416;8.690;2022-08-01T06:11:16;100573.09;;;25.10;48.28
43281;BME280;62175;49.416;8.690;2022-08-01T06:13:42;100574.40;;;25.12;48.40
43281;BME280;62175;49.416;8.690;2022-08-01T06:16:09;100576.61;;;25.22;49.32
43281;BME280;62175;49.416;8.690;2022-08-01T06:18:36;100575.70;;;25.39;48.66
43281;BME280;62175;49.416;8.690;2022-08-01T06:21:04;100575.27;;;25.20;49.16
43281;BME280;62175;49.416;8.690;2022-08-01T06:23:31;100579.71;;;25.35;49.58
43281;BME280;62175;49.416;8.690;2022-08-01T06:25:57;100579.81;;;25.42;49.31
43281;BME280;62175;49.416;8.690;2022-08-01T06:28:25;100580.97;;;25.30;49.59
43281;BME280;62175;49.416;8.690;2022-08-01T06:30:53;100581.18;;;25.12;48.92
43281;BME280;62175;49.416;8.690;2022-08-01T06:33:20;100579.96;;;25.40;48.54
43281;BME280;62175;49.416;8.690;2022-08-01T06:35:47;100579.57;;;25.40;49.13
43281;BME280;62175;49.416;8.690;2022-08-01T06:39:35;100580.39;;;25.97;49.40
43281;BME280;62175;49.416;8.690;2022-08-01T06:42:02;100579.83;;;25.31;49.08
43281;BME280;62175;49.416;8.690;2022-08-01T06:44:29;100580.90;;;25.36;49.13
43281;BME280;62175;49.416;8.690;2022-08-01T06:46:58;100581.04;;;25.44;48.63
43281;BME280;62175;49.416;8.690;2022-08-01T06:51:42;100581.61;;;25.67;48.27
43281;BME280;62175;49.416;8.690;2022-08-01T06:54:10;100582.90;;;25.17;49.27
43281;BME280;62175;49.416;8.690;2022-08-01T06:56:37;100584.94;;;25.51;48.42
43281;BME280;62175;49.416;8.690;2022-08-01T06:59:04;100591.52;;;25.13;49.27
43281;BME280;62175;49.416;8.690;2022-08-01T07:01:31;100593.75;;;25.09;49.09
43281;BME280;62175;49.416;8.690;2022-08-01T07:03:58;100591.26;;;24.99;48.98
43281;BME280;62175;49.416;8.690;2022-08-01T07:06:26;100593.15;;;25.52;49.33
43281;BME280;62175;49.416;8.690;2022-08-01T07:08:53;100589.38;;;25.46;48.54
43281;BME280;62175;49.416;8.690;2022-08-01T07:11:21;100588.05;;;25.55;48.28
43281;BME280;62175;49.416;8.690;2022-08-01T07:13:49;100588.13;;;25.39;48.17
43281;BME280;62175;49.416;8.690;2022-08-01T07:16:17;100588.70;;;25.39;48.43
43281;BME280;62175;49.416;8.690;2022-08-01T07:18:45;100597.35;;;25.62;48.58
43281;BME280;62175;49.416;8.690;2022-08-01T07:21:12;100591.50;;;25.60;48.65
43281;BME280;62175;49.416;8.690;2022-08-01T07:23:40;100593.47;;;25.42;48.46
43281;BME280;62175;49.416;8.690;2022-08-01T07:26:08;100591.55;;;25.59;48.62
43281;BME280;62175;49.416;8.690;2022-08-01T07:28:35;100589.60;;;25.52;48.46
43281;BME280;62175;49.416;8.690;2022-08-01T07:31:03;100587.33;;;25.61;48.35
43281;BME280;62175;49.416;8.690;2022-08-01T07:33:31;100585.10;;;25.74;48.19
43281;BME280;62175;49.416;8.690;2022-08-01T07:35:59;100585.49;;;25.67;48.45
43281;BME280;62175;49.416;8.690;2022-08-01T07:38:26;100578.51;;;25.27;48.30
43281;BME280;62175;49.416;8.690;2022-08-01T07:40:53;100574.66;;;25.53;48.53
43281;BME280;62175;49.416;8.690;2022-08-01T07:43:20;100572.80;;;25.47;48.48
43281;BME280;62175;49.416;8.690;2022-08-01T07:45:47;100573.12;;;25.73;48.47
43281;BME280;62175;49.416;8.690;2022-08-01T07:48:14;100577.73;;;25.73;48.86
43281;BME280;62175;49.416;8.690;2022-08-01T07:50:41;100572.18;;;25.62;48.37
43281;BME280;62175;49.416;8.690;2022-08-01T07:53:09;100568.28;;;25.41;48.52
43281;BME280;62175;49.416;8.690;2022-08-01T07:55:36;100571.39;;;25.30;48.25
43281;BME280;62175;49.416;8.690;2022-08-01T07:58:03;100568.73;;;25.82;48.60
43281;BME280;62175;49.416;8.690;2022-08-01T08:00:31;100572.97;;;25.64;48.19
43281;BME280;62175;49.416;8.690;2022-08-01T08:02:58;100571.68;;;25.82;47.90
43281;BME280;62175;49.416;8.690;2022-08-01T08:05:26;100573.41;;;25.60;48.31
43281;BME280;62175;49.416;8.690;2022-08-01T08:07:53;100567.10;;;25.56;48.06
43281;BME280;62175;49.416;8.690;2022-08-01T08:10:21;100565.39;;;25.37;48.50
43281;BME280;62175;49.416;8.690;2022-08-01T08:12:48;100571.37;;;25.62;48.09
43281;BME280;62175;49.416;8.690;2022-08-01T08:15:15;100573.91;;;25.68;48.07
43281;BME280;62175;49.416;8.690;2022-08-01T08:17:42;100574.58;;;25.93;47.73
43281;BME280;62175;49.416;8.690;2022-08-01T08:20:10;100574.44;;;25.86;48.22
43281;BME280;62175;49.416;8.690;2022-08-01T08:22:37;100577.92;;;25.55;47.70
43281;BME280;62175;49.416;8.690;2022-08-01T08:25:07;100578.35;;;25.61;48.01
43281;BME280;62175;49.416;8.690;2022-08-01T08:27:35;100575.08;;;25.69;48.03
43281;BME280;62175;49.416;8.690;2022-08-01T08:30:03;100574.27;;;25.89;47.92
43281;BME280;62175;49.416;8.690;2022-08-01T08:32:31;100575.33;;;26.19;47.70
43281;BME280;62175;49.416;8.690;2022-08-01T08:34:58;100571.91;;;25.87;48.20
43281;BME280;62175;49.416;8.690;2022-08-01T08:37:25;100568.41;;;25.64;48.26
43281;BME280;62175;49.416;8.690;2022-08-01T08:39:52;100570.46;;;25.73;48.29
43281;BME280;62175;49.416;8.690;2022-08-01T08:42:19;100565.88;;;25.58;48.01
43281;BME280;62175;49.416;8.690;2022-08-01T08:44:46;100568.69;;;25.80;48.17
43281;BME280;62175;49.416;8.690;2022-08-01T08:47:14;100565.43;;;25.66;47.77
43281;BME280;62175;49.416;8.690;2022-08-01T08:49:43;100563.99;;;25.64;47.98
43281;BME280;62175;49.416;8.690;2022-08-01T08:52:11;100561.94;;;25.57;47.56
43281;BME280;62175;49.416;8.690;2022-08-01T08:54:41;100560.91;;;25.69;47.78
43281;BME280;62175;49.416;8.690;2022-08-01T08:57:11;100559.56;;;25.70;47.46
43281;BME280;62175;49.416;8.690;2022-08-01T08:59:40;100557.65;;;25.72;47.96
43281;BME280;62175;49.416;8.690;2022-08-01T09:02:08;100560.08;;;25.93;47.85
43281;BME280;62175;49.416;8.690;2022-08-01T09:04:36;100558.96;;;25.83;47.70
43281;BME280;62175;49.416;8.690;2022-08-01T09:07:04;100560.66;;;25.71;48.43
43281;BME280;62175;49.416;8.690;2022-08-01T09:09:31;100565.99;;;26.10;48.32
43281;BME280;62175;49.416;8.690;2022-08-01T09:11:59;100567.15;;;26.11;47.71
43281;BME280;62175;49.416;8.690;2022-08-01T09:14:26;100569.21;;;25.78;47.05
43281;BME280;62175;49.416;8.690;2022-08-01T09:17:02;100569.86;;;25.81;47.26
43281;BME280;62175;49.416;8.690;2022-08-01T09:19:36;100568.33;;;25.60;47.30
43281;BME280;62175;49.416;8.690;2022-08-01T09:22:05;100570.53;;;25.82;48.17
43281;BME280;62175;49.416;8.690;2022-08-01T09:24:33;100569.52;;;25.85;48.44
43281;BME280;62175;49.416;8.690;2022-08-01T09:27:02;100571.78;;;25.99;47.83
43281;BME280;62175;49.416;8.690;2022-08-01T09:29:41;100576.59;;;25.93;47.32
43281;BME280;62175;49.416;8.690;2022-08-01T09:32:08;100575.90;;;25.84;46.89
43281;BME280;62175;49.416;8.690;2022-08-01T09:34:35;100575.48;;;25.67;46.63
43281;BME280;62175;49.416;8.690;2022-08-01T09:37:03;100571.55;;;25.61;46.44
43281;BME280;62175;49.416;8.690;2022-08-01T09:39:32;100571.41;;;25.79;46.32
43281;BME280;62175;49.416;8.690;2022-08-01T09:42:19;100576.31;;;26.08;46.90
43281;BME280;62175;49.416;8.690;2022-08-01T09:44:46;100579.36;;;25.81;47.44
43281;BME280;62175;49.416;8.690;2022-08-01T09:47:14;100584.14;;;25.99;47.27
43281;BME280;62175;49.416;8.690;2022-08-01T09:49:42;100578.77;;;25.91;46.67
43281;BME280;62175;49.416;8.690;2022-08-01T09:52:13;100576.07;;;25.92;46.60
43281;BME280;62175;49.416;8.690;2022-08-01T09:54:41;100577.85;;;26.12;47.19
43281;BME280;62175;49.416;8.690;2022-08-01T09:57:12;100580.86;;;26.15;47.07
43281;BME280;62175;49.416;8.690;2022-08-01T09:59:41;100581.64;;;25.78;46.73
43281;BME280;62175;49.416;8.690;2022-08-01T10:02:10;100580.23;;;25.98;47.80
43281;BME280;62175;49.416;8.690;2022-08-01T10:04:37;100575.00;;;25.84;47.77
43281;BME280;62175;49.416;8.690;2022-08-01T10:07:13;100569.16;;;26.02;47.73
43281;BME280;62175;49.416;8.690;2022-08-01T10:09:40;100570.28;;;25.87;48.22
43281;BME280;62175;49.416;8.690;2022-08-01T10:12:08;100566.04;;;25.99;47.57
43281;BME280;62175;49.416;8.690;2022-08-01T10:14:37;100562.51;;;25.85;47.58
43281;BME280;62175;49.416;8.690;2022-08-01T10:17:07;100562.58;;;26.14;48.19
43281;BME280;62175;49.416;8.690;2022-08-01T10:19:36;100564.88;;;26.17;47.58
43281;BME280;62175;49.416;8.690;2022-08-01T10:22:07;100560.45;;;26.42;47.57
43281;BME280;62175;49.416;8.690;2022-08-01T10:24:37;100563.28;;;26.03;47.92
43281;BME280;62175;49.416;8.690;2022-08-01T10:27:07;100561.67;;;26.26;47.36
43281;BME280;62175;49.416;8.690;2022-08-01T10:29:40;100559.53;;;26.01;47.00
43281;BME280;62175;49.416;8.690;2022-08-01T10:32:07;100554.36;;;26.24;47.31
43281;BME280;62175;49.416;8.690;2022-08-01T10:34:36;100554.40;;;25.93;46.30
43281;BME280;62175;49.416;8.690;2022-08-01T10:37:04;100553.44;;;26.13;46.70
43281;BME280;62175;49.416;8.690;2022-08-01T10:39:33;100553.32;;;25.93;47.06
43281;BME280;62175;49.416;8.690;2022-08-01T10:42:01;100552.38;;;26.11;46.73
43281;BME280;62175;49.416;8.690;2022-08-01T10:44:30;100547.41;;;26.33;46.90
43281;BME280;62175;49.416;8.690;2022-08-01T10:47:03;100546.61;;;26.20;47.78
43281;BME280;62175;49.416;8.690;2022-08-01T10:49:36;100544.01;;;26.04;46.92
43281;BME280;62175;49.416;8.690;2022-08-01T10:52:06;100545.90;;;26.25;47.26
43281;BME280;62175;49.416;8.690;2022-08-01T10:54:39;100547.52;;;26.39;47.93
43281;BME280;62175;49.416;8.690;2022-08-01T10:57:06;100553.04;;;26.61;46.31
43281;BME280;62175;49.416;8.690;2022-08-01T10:59:34;100550.97;;;26.70;46.30
43281;BME280;62175;49.416;8.690;2022-08-01T11:02:03;100548.66;;;26.35;46.15
43281;BME280;62175;49.416;8.690;2022-08-01T11:04:34;100546.51;;;25.91;45.81
43281;BME280;62175;49.416;8.690;2022-08-01T11:07:11;100540.97;;;26.20;46.23
43281;BME280;62175;49.416;8.690;2022-08-01T11:09:42;100544.54;;;26.57;46.17
43281;BME280;62175;49.416;8.690;2022-08-01T11:12:11;100536.76;;;26.74;45.85
43281;BME280;62175;49.416;8.690;2022-08-01T11:15:43;100545.96;;;26.27;45.54
43281;BME280;62175;49.416;8.690;2022-08-01T11:18:30;100540.12;;;26.43;45.62
43281;BME280;62175;49.416;8.690;2022-08-01T11:21:00;100539.17;;;26.58;45.78
43281;BME280;62175;49.416;8.690;2022-08-01T11:23:27;100534.52;;;26.49;46.63
43281;BME280;62175;49.416;8.690;2022-08-01T11:26:13;100533.38;;;26.80;46.15
43281;BME280;62175;49.416;8.690;2022-08-01T11:28:43;100529.45;;;26.21;45.78
43281;BME280;62175;49.416;8.690;2022-08-01T11:31:28;100524.86;;;26.47;45.60
43281;BME280;62175;49.416;8.690;2022-08-01T11:33:56;100517.41;;;26.55;45.79
43281;BME280;62175;49.416;8.690;2022-08-01T11:36:24;100517.49;;;26.48;46.76
43281;BME280;62175;49.416;8.690;2022-08-01T11:39:24;100516.91;;;26.50;46.74
43281;BME280;62175;49.416;8.690;2022-08-01T11:41:52;100513.71;;;26.38;46.35
43281;BME280;62175;49.416;8.690;2022-08-01T11:44:21;100515.47;;;26.25;46.84
43281;BME280;62175;49.416;8.690;2022-08-01T11:46:52;100515.54;;;26.18;46.44
43281;BME280;62175;49.416;8.690;2022-08-01T11:49:46;100514.97;;;26.71;46.91
43281;BME280;62175;49.416;8.690;2022-08-01T11:52:16;100508.01;;;26.71;46.70
43281;BME280;62175;49.416;8.690;2022-08-01T11:54:44;100506.25;;;26.67;46.68
43281;BME280;62175;49.416;8.690;2022-08-01T11:57:13;100500.80;;;26.37;46.77
43281;BME280;62175;49.416;8.690;2022-08-01T11:59:43;100501.18;;;26.27;47.28
43281;BME280;62175;49.416;8.690;2022-08-01T12:02:20;100510.20;;;26.63;46.52
43281;BME280;62175;49.416;8.690;2022-08-01T12:04:51;100504.76;;;26.71;46.41
43281;BME280;62175;49.416;8.690;2022-08-01T12:07:18;100499.27;;;26.80;46.90
43281;BME280;62175;49.416;8.690;2022-08-01T12:09:46;100503.16;;;26.83;46.16
43281;BME280;62175;49.416;8.690;2022-08-01T12:12:16;100502.07;;;26.99;45.36
43281;BME280;62175;49.416;8.690;2022-08-01T12:14:45;100496.56;;;27.00;46.90
43281;BME280;62175;49.416;8.690;2022-08-01T12:17:21;100497.37;;;26.25;46.57
43281;BME280;62175;49.416;8.690;2022-08-01T12:19:54;100495.88;;;26.24;46.83
43281;BME280;62175;49.416;8.690;2022-08-01T12:22:23;100496.18;;;26.38;47.83
43281;BME280;62175;49.416;8.690;2022-08-01T12:24:51;100492.11;;;26.31;47.57
43281;BME280;62175;49.416;8.690;2022-08-01T12:27:29;100488.91;;;26.59;48.06
43281;BME280;62175;49.416;8.690;2022-08-01T12:29:57;100485.43;;;26.59;47.66
43281;BME280;62175;49.416;8.690;2022-08-01T12:32:27;100483.20;;;26.35;48.72
43281;BME280;62175;49.416;8.690;2022-08-01T12:34:56;100482.06;;;26.67;47.98
43281;BME280;62175;49.416;8.690;2022-08-01T12:37:24;100484.58;;;26.48;47.94
43281;BME280;62175;49.416;8.690;2022-08-01T12:39:52;100484.00;;;26.45;47.64
43281;BME280;62175;49.416;8.690;2022-08-01T12:42:20;100480.93;;;26.34;47.98
43281;BME280;62175;49.416;8.690;2022-08-01T12:44:50;100479.82;;;26.46;47.57
43281;BME280;62175;49.416;8.690;2022-08-01T12:47:18;100482.86;;;26.91;46.88
43281;BME280;62175;49.416;8.690;2022-08-01T12:49:48;100476.38;;;26.53;46.49
43281;BME280;62175;49.416;8.690;2022-08-01T12:52:15;100474.63;;;26.84;46.64
43281;BME280;62175;49.416;8.690;2022-08-01T12:55:16;100476.00;;;26.45;48.11
43281;BME280;62175;49.416;8.690;2022-08-01T12:57:45;100473.43;;;26.88;46.58
43281;BME280;62175;49.416;8.690;2022-08-01T13:00:16;100473.43;;;26.34;47.22
43281;BME280;62175;49.416;8.690;2022-08-01T13:02:45;100461.45;;;26.57;47.65
43281;BME280;62175;49.416;8.690;2022-08-01T13:05:14;100458.71;;;26.67;46.37